Tropical Cyclones
[Index]
Main Index Home Page Stock Weather Photos Extreme Storms Discussion Storm News and Storm Chasing Reports Tropical Cyclones / Hurricanes / Typhoons Weather Data and Links Wild Fires / Bushfires Weather Observation Techniques Weather Picture Catalogue Tornado Pictures and Reports Stock Video Footage and DVDs for sale
Season 2012-2013 Tropical Cyclone PETA Track Map
Season 2012-2013 Summaries: [BoM-AU] [JTWC-AU] [JTWC-SIO] [JTWC-SPAC] [JTWC-SH]
<<- Previous TC | BoM 2012-2013 Season | Next TC ->>

click for intensity scale information  Lat/long Grid: Show Hide

 Date Labels: Show Hide

Bureau of Meteorology Tropical Cyclone Data

Name: PETA
Number: 964 / 201213_08

20 Jan 2013 03:00 UTC to 23 Jan 2013 09:00 UTC

    date/time    lat    long    hPa   cat  kts
2013-01-20 03   16.5   123.5   1001         15          
2013-01-20 06   16.9   123.2   1001         15          
2013-01-20 09   16.9   123.2   1002         20          
2013-01-20 12   17.1   123.0   1001         15          
2013-01-20 15   17.3   122.9   1003         20          
2013-01-20 18   17.4   122.7   1001         15          
2013-01-21 00   17.9   122.4   1001         20          
2013-01-21 03   18.1   122.2                20          
2013-01-21 06   18.3   121.6   1001         25          
2013-01-21 09   18.6   121.7   1002         15          
2013-01-21 12   19.0   121.1   1001         25          
2013-01-21 15   19.2   121.2   1002         15          
2013-01-21 18   19.3   120.8    999         30          
2013-01-21 21   19.3   120.5   1001         20          
2013-01-22 00   19.4   120.2    996         30          
2013-01-22 03   19.4   119.9                30          
2013-01-22 06   19.6   119.3    994    1    30          
2013-01-22 09   19.8   118.8    997         30          
2013-01-22 10   19.8   118.7                            
2013-01-22 12   19.9   118.6    991    1    35          
2013-01-22 13   19.9   118.4    997         30          
2013-01-22 14   19.9   118.1    997         30          
2013-01-22 15   19.9   117.9                30          
2013-01-22 18   19.7   117.8    991    1    30          
2013-01-22 21   19.9   117.9                30          
2013-01-23 00   20.2   117.7    991    1    35          
2013-01-23 03   20.5   117.4    989    1    45          
2013-01-23 06   20.8   117.3    988    1    40          
2013-01-23 09   21.0   117.2    994    1    30          
Winds are 10-min average.

Tropical cyclone tracks developed by Michael Bath using data from the Bureau of Meteorology and Google Maps.


[Australian Severe Weather index] [Copyright Notice] [Email Contacts] [Search This Site] [Privacy Policy]
Document: tropical_cyclone_peta.htm Updated: 29 June 2017